Shell, Wyoming
Current Conditions -  °F | °C
As of 5:53 PM on Monday 22 Dec 2014 (Local Time) from KGEY Reporting Station
Clear Clear  
Wind Chill: 22°   Ceiling: Unl
Heat Index: 33°   Visibility: 10mi
Dew Point: 25°   Wind: 20mph
Humidity: 72%   Direction: 320°NW
Pressure: 29.92"   Gusts: NA
Location:  44.54°N, 107.78°W
Report Text: KGEY 230053Z AUTO 32017KT 10SM CLR 01/M04 A2992 RMK AO2 PK WND 32031/0005 SLP165 T00061039
Loading
Personal Weather Stations






























Interactive Weather Map New forecast layout! Learn more

10-Day Weather Forecast

Advertisements
Track Severe Weather on mobile